Time;durP1;ratioP1;P1;durP2;ratioP2;P2;SDS_P1;SDS_P2;PMS_P1;PMS_P2;Temp;Humidity;BMP_temperature;BMP_pressure;BME280_temperature;BME280_humidity;BME280_pressure;Samples;Min_cycle;Max_cycle;Signal;HPM_P1;HPM_P2
2021/07/23 00:01:35;;;;;;;8.93;4.57;;;;;;;;;;5071782;28;38174;-76
2021/07/23 00:04:01;;;;;;;6.72;4.95;;;;;;;;;;5066725;28;38903;-76
2021/07/23 00:06:27;;;;;;;8.93;5.25;;;;;;;;;;5053991;28;47473;-76
2021/07/23 00:08:54;;;;;;;7.28;4.82;;;;;;;;;;5055384;28;38919;-76
2021/07/23 00:11:20;;;;;;;8.63;5.40;;;;;;;;;;5055803;27;36947;-76
2021/07/23 00:13:47;;;;;;;7.32;4.65;;;;;;;;;;5055642;28;39102;-76
2021/07/23 00:16:14;;;;;;;7.53;5.00;;;;;;;;;;5051345;28;39676;-76
2021/07/23 00:18:40;;;;;;;7.47;5.00;;;;;;;;;;5055000;28;39878;-76
2021/07/23 00:21:07;;;;;;;7.30;5.30;;;;;;;;;;5051751;28;37369;-76
2021/07/23 00:23:33;;;;;;;8.25;5.10;;;;;;;;;;5051899;28;39476;-76
2021/07/23 00:25:59;;;;;;;8.00;5.10;;;;;;;;;;5050918;28;41130;-77
2021/07/23 00:28:26;;;;;;;8.50;5.25;;;;;;;;;;5050720;28;39725;-77
2021/07/23 00:30:52;;;;;;;7.45;5.05;;;;;;;;;;5055738;28;37802;-76
2021/07/23 00:33:19;;;;;;;8.57;5.35;;;;;;;;;;5057998;28;38330;-77
2021/07/23 00:35:45;;;;;;;7.38;5.35;;;;;;;;;;5060931;28;38702;-77
2021/07/23 00:38:12;;;;;;;12.35;5.20;;;;;;;;;;5050639;28;38898;-77
2021/07/23 00:40:38;;;;;;;9.15;5.45;;;;;;;;;;5054769;28;36545;-76
2021/07/23 00:43:05;;;;;;;8.98;5.30;;;;;;;;;;5050057;28;39239;-76
2021/07/23 00:45:31;;;;;;;8.88;5.85;;;;;;;;;;5055042;28;38424;-76
2021/07/23 00:48:03;;;;;;;11.13;6.03;;;;;;;;;;5054987;28;38317;-76
2021/07/23 00:50:31;;;;;;;9.98;5.03;;;;;;;;;;5052944;28;47667;-77
2021/07/23 00:52:58;;;;;;;8.38;6.40;;;;;;;;;;5062248;28;37908;-77
2021/07/23 00:55:25;;;;;;;8.15;5.60;;;;;;;;;;5053598;27;39676;-77
2021/07/23 00:57:52;;;;;;;6.60;5.05;;;;;;;;;;5055413;28;37865;-76
2021/07/23 01:00:18;;;;;;;10.13;6.50;;;;;;;;;;5054574;28;36734;-77
2021/07/23 01:02:45;;;;;;;10.48;6.32;;;;;;;;;;5049079;28;41240;-76
2021/07/23 01:05:12;;;;;;;8.35;5.93;;;;;;;;;;5062382;28;37918;-76
2021/07/23 01:07:38;;;;;;;12.27;6.15;;;;;;;;;;5047821;28;37345;-76
2021/07/23 01:10:05;;;;;;;10.18;6.00;;;;;;;;;;5054743;28;36298;-77
2021/07/23 01:12:32;;;;;;;10.50;5.97;;;;;;;;;;5055540;28;46599;-76
2021/07/23 01:14:59;;;;;;;11.68;6.32;;;;;;;;;;5054424;28;41791;-76
2021/07/23 01:17:26;;;;;;;8.50;5.75;;;;;;;;;;5049355;28;39186;-76
2021/07/23 01:19:56;;;;;;;12.85;6.47;;;;;;;;;;5055458;28;37261;-76
2021/07/23 01:22:26;;;;;;;9.25;5.97;;;;;;;;;;5057559;28;39987;-77
2021/07/23 01:24:52;;;;;;;11.70;6.55;;;;;;;;;;5056340;28;38116;-76
2021/07/23 01:27:19;;;;;;;9.80;5.53;;;;;;;;;;5054273;28;36555;-77
2021/07/23 01:29:45;;;;;;;9.13;5.97;;;;;;;;;;5059928;28;36784;-77
2021/07/23 01:32:12;;;;;;;9.68;6.40;;;;;;;;;;5056273;28;40020;-77
2021/07/23 01:34:39;;;;;;;9.65;6.13;;;;;;;;;;5056129;28;36361;-76
2021/07/23 01:37:06;;;;;;;9.65;6.30;;;;;;;;;;5051673;28;38799;-76
2021/07/23 01:39:33;;;;;;;9.98;6.45;;;;;;;;;;5057037;28;36476;-77
2021/07/23 01:42:00;;;;;;;10.98;6.30;;;;;;;;;;5056820;28;40142;-76
2021/07/23 01:44:26;;;;;;;10.07;6.18;;;;;;;;;;5053325;28;38849;-77
2021/07/23 01:46:52;;;;;;;10.68;6.22;;;;;;;;;;5052690;28;37492;-77
2021/07/23 01:49:19;;;;;;;11.23;6.65;;;;;;;;;;5054027;28;36894;-77
2021/07/23 01:51:45;;;;;;;10.60;6.82;;;;;;;;;;5055284;27;39018;-77
2021/07/23 01:54:11;;;;;;;9.57;6.95;;;;;;;;;;5054832;28;37980;-77
2021/07/23 01:56:38;;;;;;;13.35;6.47;;;;;;;;;;5049986;28;37449;-77
2021/07/23 01:59:04;;;;;;;14.20;6.93;;;;;;;;;;5054243;28;36466;-77
2021/07/23 02:01:31;;;;;;;13.30;7.22;;;;;;;;;;5048994;28;38721;-77
2021/07/23 02:03:57;;;;;;;11.18;6.28;;;;;;;;;;5049999;28;38921;-77
2021/07/23 02:06:23;;;;;;;10.50;6.80;;;;;;;;;;5052462;28;38528;-77
2021/07/23 02:08:50;;;;;;;11.30;6.88;;;;;;;;;;5054628;28;36799;-77
2021/07/23 02:11:16;;;;;;;9.45;6.32;;;;;;;;;;5050721;27;39318;-76
2021/07/23 02:13:42;;;;;;;9.95;7.13;;;;;;;;;;5057133;28;38698;-77
2021/07/23 02:16:09;;;;;;;11.30;6.78;;;;;;;;;;5054763;27;37223;-77
2021/07/23 02:18:35;;;;;;;10.00;6.57;;;;;;;;;;5057221;28;37185;-77
2021/07/23 02:21:05;;;;;;;10.90;6.38;;;;;;;;;;5056015;28;36907;-77
2021/07/23 02:23:31;;;;;;;9.00;6.47;;;;;;;;;;5053801;28;47654;-78
2021/07/23 02:25:58;;;;;;;13.63;6.60;;;;;;;;;;5052771;28;38204;-78
2021/07/23 02:28:24;;;;;;;10.68;6.05;;;;;;;;;;5059853;28;36875;-78
2021/07/23 02:30:50;;;;;;;8.75;6.25;;;;;;;;;;5058281;28;39606;-77
2021/07/23 02:33:17;;;;;;;11.43;6.70;;;;;;;;;;5058110;28;38685;-78
2021/07/23 02:35:43;;;;;;;10.45;6.50;;;;;;;;;;5057482;28;39287;-78
2021/07/23 02:38:09;;;;;;;8.93;5.90;;;;;;;;;;5056969;28;35439;-78
2021/07/23 02:40:36;;;;;;;11.35;7.78;;;;;;;;;;5057289;27;39360;-78
2021/07/23 02:43:02;;;;;;;10.68;7.60;;;;;;;;;;5057045;28;37575;-77
2021/07/23 02:45:28;;;;;;;10.98;7.13;;;;;;;;;;5076203;28;37508;-78
2021/07/23 02:47:55;;;;;;;11.50;7.50;;;;;;;;;;5058194;28;35666;-78
2021/07/23 02:50:21;;;;;;;10.38;6.88;;;;;;;;;;5055955;27;38135;-78
2021/07/23 02:52:48;;;;;;;13.55;6.97;;;;;;;;;;5055537;28;39466;-78
2021/07/23 02:55:14;;;;;;;10.57;6.38;;;;;;;;;;5059926;27;38733;-78
2021/07/23 02:57:40;;;;;;;12.68;6.88;;;;;;;;;;5059965;27;36938;-78
2021/07/23 03:00:07;;;;;;;10.77;6.05;;;;;;;;;;5055853;28;38320;-78
2021/07/23 03:02:34;;;;;;;9.25;6.18;;;;;;;;;;5052331;28;47357;-78
2021/07/23 03:05:01;;;;;;;10.32;6.90;;;;;;;;;;5077537;28;40590;-78
2021/07/23 03:07:27;;;;;;;11.93;6.53;;;;;;;;;;5054990;28;37103;-78
2021/07/23 03:09:54;;;;;;;10.75;6.95;;;;;;;;;;5060264;28;38480;-78
2021/07/23 03:12:20;;;;;;;10.80;6.78;;;;;;;;;;5071184;28;38816;-78
2021/07/23 03:14:47;;;;;;;10.50;7.07;;;;;;;;;;5058330;28;39202;-77
2021/07/23 03:17:13;;;;;;;9.82;6.28;;;;;;;;;;5068817;27;37193;-78
2021/07/23 03:19:39;;;;;;;13.52;6.70;;;;;;;;;;5055484;28;38354;-77
2021/07/23 03:22:06;;;;;;;10.80;6.88;;;;;;;;;;5054398;28;38929;-78
2021/07/23 03:24:35;;;;;;;11.70;6.80;;;;;;;;;;5053133;28;39272;-77
2021/07/23 03:27:02;;;;;;;8.75;6.47;;;;;;;;;;5056979;28;35316;-76
2021/07/23 03:29:28;;;;;;;8.20;6.40;;;;;;;;;;5075205;28;37976;-77
2021/07/23 03:31:54;;;;;;;9.40;6.50;;;;;;;;;;5056881;28;39037;-78
2021/07/23 03:34:21;;;;;;;10.18;7.25;;;;;;;;;;5057391;28;38202;-77
2021/07/23 03:36:47;;;;;;;9.23;6.90;;;;;;;;;;5058129;28;36927;-77
2021/07/23 03:39:13;;;;;;;9.48;6.63;;;;;;;;;;5066486;28;39670;-78
2021/07/23 03:41:42;;;;;;;12.32;9.18;;;;;;;;;;5070798;28;38904;-78
2021/07/23 03:44:08;;;;;;;10.23;7.25;;;;;;;;;;5055825;28;39411;-77
2021/07/23 03:46:35;;;;;;;12.45;7.68;;;;;;;;;;5057693;28;36964;-77
2021/07/23 03:49:01;;;;;;;11.10;7.07;;;;;;;;;;5070326;28;38785;-77
2021/07/23 03:51:27;;;;;;;9.07;7.20;;;;;;;;;;5051700;28;47268;-77
2021/07/23 03:53:54;;;;;;;11.43;7.65;;;;;;;;;;5060185;28;39047;-77
2021/07/23 03:56:20;;;;;;;10.85;6.65;;;;;;;;;;5055527;27;37062;-77
2021/07/23 03:58:47;;;;;;;10.38;7.47;;;;;;;;;;5056590;28;40820;-77
2021/07/23 04:01:13;;;;;;;11.13;7.38;;;;;;;;;;5055407;28;39082;-77
2021/07/23 04:03:41;;;;;;;9.32;6.88;;;;;;;;;;5054817;28;38379;-77
2021/07/23 04:06:07;;;;;;;10.90;7.18;;;;;;;;;;5053234;28;37577;-77
2021/07/23 04:08:34;;;;;;;9.00;6.38;;;;;;;;;;5057245;28;37642;-76
2021/07/23 04:11:00;;;;;;;9.98;7.70;;;;;;;;;;5060684;28;39157;-77
2021/07/23 04:13:27;;;;;;;10.65;7.07;;;;;;;;;;5059607;28;46390;-76
2021/07/23 04:15:53;;;;;;;9.73;7.20;;;;;;;;;;5058036;28;36710;-77
2021/07/23 04:18:20;;;;;;;10.48;7.38;;;;;;;;;;5056244;28;38912;-77
2021/07/23 04:20:46;;;;;;;9.43;6.57;;;;;;;;;;5054448;28;39198;-77
2021/07/23 04:23:12;;;;;;;8.50;6.45;;;;;;;;;;5058711;28;39071;-77
2021/07/23 04:25:39;;;;;;;7.32;6.35;;;;;;;;;;5057433;28;36424;-77
2021/07/23 04:28:06;;;;;;;11.75;6.88;;;;;;;;;;5049844;28;37683;-76
2021/07/23 04:30:33;;;;;;;8.50;6.80;;;;;;;;;;5053229;28;38498;-77
2021/07/23 04:32:59;;;;;;;9.07;7.22;;;;;;;;;;5057579;28;39639;-76
2021/07/23 04:35:26;;;;;;;13.40;7.03;;;;;;;;;;5057146;28;37213;-75
2021/07/23 04:37:52;;;;;;;8.85;6.28;;;;;;;;;;5060535;28;38897;-77
2021/07/23 04:40:19;;;;;;;10.77;6.47;;;;;;;;;;5065542;28;38347;-76
2021/07/23 04:42:45;;;;;;;9.65;6.20;;;;;;;;;;5055112;28;40516;-76
2021/07/23 04:45:12;;;;;;;10.50;7.05;;;;;;;;;;5062943;28;37021;-77
2021/07/23 04:47:38;;;;;;;8.68;6.43;;;;;;;;;;5064227;28;38257;-77
2021/07/23 04:50:05;;;;;;;9.20;7.00;;;;;;;;;;5059097;28;38704;-76
2021/07/23 04:52:31;;;;;;;8.75;6.82;;;;;;;;;;5067253;28;38749;-77
2021/07/23 04:54:59;;;;;;;9.73;6.78;;;;;;;;;;5066841;28;37459;-77
2021/07/23 04:57:28;;;;;;;8.63;7.03;;;;;;;;;;5069085;27;40066;-76
2021/07/23 04:59:54;;;;;;;8.55;6.63;;;;;;;;;;5066707;28;39484;-76
2021/07/23 05:02:21;;;;;;;7.05;6.32;;;;;;;;;;5064642;28;37403;-77
2021/07/23 05:04:47;;;;;;;11.57;6.38;;;;;;;;;;5070249;28;36057;-76
2021/07/23 05:07:14;;;;;;;8.52;6.20;;;;;;;;;;5067884;28;39788;-77
2021/07/23 05:09:40;;;;;;;10.75;6.28;;;;;;;;;;5068187;28;39299;-77
2021/07/23 05:12:07;;;;;;;7.18;5.68;;;;;;;;;;5067062;28;37272;-77
2021/07/23 05:14:33;;;;;;;10.45;5.88;;;;;;;;;;5055769;28;36471;-76
2021/07/23 05:17:00;;;;;;;8.35;5.90;;;;;;;;;;5054505;28;39923;-76
2021/07/23 05:19:27;;;;;;;8.43;6.00;;;;;;;;;;5051939;28;46980;-77
2021/07/23 05:21:53;;;;;;;6.82;5.75;;;;;;;;;;5051195;28;39017;-77
2021/07/23 05:24:20;;;;;;;8.98;6.00;;;;;;;;;;5051275;28;37024;-77
2021/07/23 05:26:46;;;;;;;9.55;6.18;;;;;;;;;;5053391;28;38813;-77
2021/07/23 05:29:12;;;;;;;7.85;5.30;;;;;;;;;;5054135;28;37262;-77
2021/07/23 05:31:40;;;;;;;6.63;5.22;;;;;;;;;;5055538;28;40124;-78
2021/07/23 05:34:06;;;;;;;9.10;5.57;;;;;;;;;;5065976;28;36992;-77
2021/07/23 05:36:33;;;;;;;7.88;5.30;;;;;;;;;;5051728;28;39784;-77
2021/07/23 05:38:59;;;;;;;7.15;5.18;;;;;;;;;;5064922;28;39705;-77
2021/07/23 05:41:26;;;;;;;8.60;5.15;;;;;;;;;;5052004;28;39040;-78
2021/07/23 05:43:52;;;;;;;8.90;5.25;;;;;;;;;;5051960;28;35330;-77
2021/07/23 05:46:19;;;;;;;6.30;4.93;;;;;;;;;;5048575;28;40622;-77
2021/07/23 05:48:45;;;;;;;6.47;4.82;;;;;;;;;;5053936;28;39461;-77
2021/07/23 05:51:12;;;;;;;6.70;5.32;;;;;;;;;;5051075;28;42324;-79
2021/07/23 05:53:38;;;;;;;5.63;4.43;;;;;;;;;;5054552;28;37956;-77
2021/07/23 05:56:05;;;;;;;5.72;4.43;;;;;;;;;;5054167;27;38638;-77
2021/07/23 05:58:32;;;;;;;7.60;5.00;;;;;;;;;;5051438;28;37687;-78
2021/07/23 06:00:58;;;;;;;7.47;4.82;;;;;;;;;;5058186;28;38705;-78
2021/07/23 06:03:24;;;;;;;7.10;4.82;;;;;;;;;;5063869;28;35247;-80
2021/07/23 06:05:51;;;;;;;6.07;4.35;;;;;;;;;;5059513;28;39437;-78
2021/07/23 06:08:18;;;;;;;7.82;4.63;;;;;;;;;;5058985;28;38743;-78
2021/07/23 06:10:44;;;;;;;5.38;3.83;;;;;;;;;;5060516;28;38192;-78
2021/07/23 06:13:11;;;;;;;6.28;4.20;;;;;;;;;;5054139;28;37035;-78
2021/07/23 06:15:37;;;;;;;7.95;4.45;;;;;;;;;;5058765;28;38882;-78
2021/07/23 06:18:03;;;;;;;6.50;4.03;;;;;;;;;;5058951;28;38778;-78
2021/07/23 06:20:30;;;;;;;6.07;3.88;;;;;;;;;;5048713;28;39516;-78
2021/07/23 06:22:57;;;;;;;5.90;3.80;;;;;;;;;;5053091;28;37173;-77
2021/07/23 06:25:23;;;;;;;5.38;3.45;;;;;;;;;;5053114;28;38738;-79
2021/07/23 06:27:50;;;;;;;5.82;4.03;;;;;;;;;;5048204;28;41655;-77
2021/07/23 06:30:16;;;;;;;4.40;3.33;;;;;;;;;;5045127;28;40184;-76
2021/07/23 06:32:43;;;;;;;4.22;3.40;;;;;;;;;;5050836;28;38149;-76
2021/07/23 06:35:09;;;;;;;5.55;3.60;;;;;;;;;;5059319;28;39184;-76
2021/07/23 06:37:36;;;;;;;4.30;3.60;;;;;;;;;;5053983;28;37785;-76
2021/07/23 06:40:03;;;;;;;4.22;3.45;;;;;;;;;;5057595;28;39217;-78
2021/07/23 06:42:29;;;;;;;5.38;2.97;;;;;;;;;;5056630;28;37232;-76
2021/07/23 06:44:55;;;;;;;6.88;3.63;;;;;;;;;;5054783;28;38745;-78
2021/07/23 06:47:22;;;;;;;4.07;3.50;;;;;;;;;;5067796;28;36385;-78
2021/07/23 06:49:48;;;;;;;4.22;2.92;;;;;;;;;;5053195;28;37983;-78
2021/07/23 06:52:15;;;;;;;3.65;3.13;;;;;;;;;;5053115;28;36826;-77
2021/07/23 06:54:41;;;;;;;4.30;3.50;;;;;;;;;;5060654;28;39866;-78
2021/07/23 06:57:07;;;;;;;6.88;3.85;;;;;;;;;;5061576;28;39096;-77
2021/07/23 06:59:34;;;;;;;6.47;4.35;;;;;;;;;;5054813;28;38432;-77
2021/07/23 07:02:04;;;;;;;6.57;4.05;;;;;;;;;;5059152;28;37530;-77
2021/07/23 07:04:31;;;;;;;7.53;4.78;;;;;;;;;;5056482;28;47180;-77
2021/07/23 07:06:58;;;;;;;4.50;3.70;;;;;;;;;;5058187;28;39958;-78
2021/07/23 07:09:25;;;;;;;6.10;4.03;;;;;;;;;;5052413;28;39283;-77
2021/07/23 07:11:51;;;;;;;5.93;4.18;;;;;;;;;;5057243;28;36881;-78
2021/07/23 07:14:18;;;;;;;4.80;3.40;;;;;;;;;;5051770;28;39060;-75
2021/07/23 07:16:44;;;;;;;7.25;3.90;;;;;;;;;;5052003;28;39616;-77
2021/07/23 07:19:10;;;;;;;5.43;4.05;;;;;;;;;;5063569;28;38655;-78
2021/07/23 07:21:37;;;;;;;5.35;4.30;;;;;;;;;;5058639;28;37234;-78
2021/07/23 07:24:04;;;;;;;6.95;4.55;;;;;;;;;;5063459;28;38834;-78
2021/07/23 07:26:31;;;;;;;5.07;4.20;;;;;;;;;;5062236;28;39677;-77
2021/07/23 07:28:57;;;;;;;7.53;4.90;;;;;;;;;;5058719;28;39100;-79
2021/07/23 07:31:23;;;;;;;7.93;4.50;;;;;;;;;;5066474;28;37986;-77
2021/07/23 07:33:50;;;;;;;6.38;4.30;;;;;;;;;;5058144;28;39351;-78
2021/07/23 07:36:19;;;;;;;7.63;4.88;;;;;;;;;;5056268;28;38614;-78
2021/07/23 07:38:46;;;;;;;6.35;5.10;;;;;;;;;;5070226;28;39362;-77
2021/07/23 07:41:16;;;;;;;6.22;4.63;;;;;;;;;;5064811;28;37348;-78
2021/07/23 07:43:42;;;;;;;6.70;5.18;;;;;;;;;;5061500;28;39015;-77
2021/07/23 07:46:09;;;;;;;5.30;4.20;;;;;;;;;;5060139;28;41904;-77
2021/07/23 07:48:35;;;;;;;5.18;4.28;;;;;;;;;;5053934;28;39011;-77
2021/07/23 07:51:02;;;;;;;6.55;4.28;;;;;;;;;;5063743;28;37091;-77
2021/07/23 07:53:28;;;;;;;5.97;4.40;;;;;;;;;;5062012;28;39119;-77
2021/07/23 07:55:54;;;;;;;6.72;4.85;;;;;;;;;;5057237;28;38552;-77
2021/07/23 07:58:21;;;;;;;7.38;5.03;;;;;;;;;;5063594;28;39348;-77
2021/07/23 08:00:47;;;;;;;7.82;4.65;;;;;;;;;;5067730;28;37738;-78
2021/07/23 08:03:14;;;;;;;5.82;3.80;;;;;;;;;;5069098;27;39833;-78
2021/07/23 08:05:40;;;;;;;6.80;4.82;;;;;;;;;;5054183;28;39214;-77
2021/07/23 08:08:09;;;;;;;6.93;4.50;;;;;;;;;;5063599;28;38662;-78
2021/07/23 08:10:36;;;;;;;4.50;3.65;;;;;;;;;;5062183;28;36849;-77
2021/07/23 08:13:04;;;;;;;8.38;5.22;;;;;;;;;;5064863;28;39150;-77
2021/07/23 08:15:31;;;;;;;6.05;4.97;;;;;;;;;;5056894;28;38911;-77
2021/07/23 08:17:59;;;;;;;7.88;4.78;;;;;;;;;;5061641;28;39220;-77
2021/07/23 08:20:25;;;;;;;10.50;5.97;;;;;;;;;;5060494;28;37543;-77
2021/07/23 08:22:51;;;;;;;5.15;3.88;;;;;;;;;;5064282;28;40870;-77
2021/07/23 08:25:18;;;;;;;5.90;4.35;;;;;;;;;;5054802;28;38428;-78
2021/07/23 08:27:44;;;;;;;6.22;4.90;;;;;;;;;;5054239;28;40768;-77
2021/07/23 08:30:11;;;;;;;7.25;4.60;;;;;;;;;;5057117;28;37079;-77
2021/07/23 08:32:37;;;;;;;8.02;4.78;;;;;;;;;;5059729;28;37564;-77
2021/07/23 08:35:04;;;;;;;4.70;4.22;;;;;;;;;;5067532;28;39602;-77
2021/07/23 08:37:31;;;;;;;5.97;4.95;;;;;;;;;;5061994;28;47548;-77
2021/07/23 08:39:57;;;;;;;8.05;4.78;;;;;;;;;;5061078;28;37912;-77
2021/07/23 08:42:30;;;;;;;5.55;4.75;;;;;;;;;;5056270;28;40582;-77
2021/07/23 08:44:57;;;;;;;5.32;4.82;;;;;;;;;;5078845;28;38978;-77
2021/07/23 08:47:24;;;;;;;4.80;4.15;;;;;;;;;;5050542;28;39000;-77
2021/07/23 08:49:51;;;;;;;6.97;4.72;;;;;;;;;;5065591;28;37353;-77
2021/07/23 08:52:17;;;;;;;5.32;4.13;;;;;;;;;;5061562;28;38829;-77
2021/07/23 08:54:44;;;;;;;5.40;4.13;;;;;;;;;;5056642;28;38755;-77
2021/07/23 08:57:11;;;;;;;7.13;5.00;;;;;;;;;;5060364;28;40041;-78
2021/07/23 08:59:37;;;;;;;6.65;4.60;;;;;;;;;;5059948;28;38022;-77
2021/07/23 09:02:05;;;;;;;6.50;4.05;;;;;;;;;;5053481;28;38146;-76
2021/07/23 09:04:31;;;;;;;6.30;4.90;;;;;;;;;;5070722;28;40896;-76
2021/07/23 09:07:13;;;;;;;9.52;5.50;;;;;;;;;;5063659;28;38598;-76
2021/07/23 09:09:39;;;;;;;6.47;4.70;;;;;;;;;;5068148;28;48363;-76
2021/07/23 09:12:06;;;;;;;7.38;5.20;;;;;;;;;;5055396;27;39723;-76
2021/07/23 09:14:32;;;;;;;5.25;4.55;;;;;;;;;;5054302;28;39982;-76
2021/07/23 09:16:59;;;;;;;6.50;4.20;;;;;;;;;;5054153;28;38296;-76
2021/07/23 09:19:25;;;;;;;5.55;4.13;;;;;;;;;;5051601;28;35621;-76
2021/07/23 09:21:55;;;;;;;7.88;5.25;;;;;;;;;;5048747;28;39027;-76
2021/07/23 09:24:23;;;;;;;7.35;5.32;;;;;;;;;;5051214;28;38956;-75
2021/07/23 09:26:49;;;;;;;5.88;3.97;;;;;;;;;;5052249;28;38823;-76
2021/07/23 09:29:16;;;;;;;6.07;4.78;;;;;;;;;;5049246;28;37317;-76
2021/07/23 09:32:01;;;;;;;7.95;5.10;;;;;;;;;;5042068;28;38575;-75
2021/07/23 09:34:31;;;;;;;5.97;4.70;;;;;;;;;;5070862;22;46906;-75
2021/07/23 09:37:06;;;;;;;7.07;5.20;;;;;;;;;;5066657;28;39066;-75
2021/07/23 09:39:33;;;;;;;8.13;4.82;;;;;;;;;;5064651;28;48687;-75
2021/07/23 09:42:02;;;;;;;7.25;5.60;;;;;;;;;;5061707;28;39086;-75
2021/07/23 09:44:29;;;;;;;7.88;4.82;;;;;;;;;;5061183;28;48817;-75
2021/07/23 09:46:55;;;;;;;7.30;5.13;;;;;;;;;;5060586;28;38214;-75
2021/07/23 09:49:24;;;;;;;4.93;4.10;;;;;;;;;;5059387;28;38895;-75
2021/07/23 09:51:51;;;;;;;6.93;5.28;;;;;;;;;;5060553;28;40532;-75
2021/07/23 09:54:18;;;;;;;5.90;4.80;;;;;;;;;;5063757;28;39291;-75
2021/07/23 09:56:46;;;;;;;5.68;5.00;;;;;;;;;;5066258;28;39118;-75
2021/07/23 09:59:15;;;;;;;6.85;4.75;;;;;;;;;;5061392;28;36940;-75
2021/07/23 10:01:43;;;;;;;7.05;4.65;;;;;;;;;;5060344;28;40198;-76
2021/07/23 10:04:11;;;;;;;6.88;5.07;;;;;;;;;;5065172;28;38949;-75
2021/07/23 10:06:44;;;;;;;7.75;4.90;;;;;;;;;;5069553;28;38485;-75
2021/07/23 10:09:11;;;;;;;6.20;4.15;;;;;;;;;;5062243;28;36830;-75
2021/07/23 10:11:41;;;;;;;5.55;4.60;;;;;;;;;;5051384;28;39990;-75
2021/07/23 10:14:11;;;;;;;9.50;4.63;;;;;;;;;;5061029;28;39323;-75
2021/07/23 10:16:39;;;;;;;8.48;4.97;;;;;;;;;;5077483;28;38259;-75
2021/07/23 10:19:07;;;;;;;5.80;4.65;;;;;;;;;;5063421;28;36632;-75
2021/07/23 10:21:33;;;;;;;7.03;4.47;;;;;;;;;;5070037;27;38876;-75
2021/07/23 10:24:01;;;;;;;6.80;4.38;;;;;;;;;;5057229;28;39587;-75
2021/07/23 10:26:30;;;;;;;5.68;4.70;;;;;;;;;;5060809;28;47523;-76
2021/07/23 10:28:58;;;;;;;5.60;4.00;;;;;;;;;;5056920;28;37813;-76
2021/07/23 10:31:32;;;;;;;7.53;4.72;;;;;;;;;;5054738;28;39178;-76
2021/07/23 10:33:59;;;;;;;7.75;5.07;;;;;;;;;;5068662;28;39485;-76
2021/07/23 10:36:32;;;;;;;7.03;4.75;;;;;;;;;;5062069;28;39885;-75
2021/07/23 10:39:04;;;;;;;6.15;4.20;;;;;;;;;;5058167;28;38328;-76
2021/07/23 10:41:34;;;;;;;7.78;4.70;;;;;;;;;;5073450;28;46867;-75
2021/07/23 10:44:01;;;;;;;7.05;4.63;;;;;;;;;;5059709;28;38910;-76
2021/07/23 10:46:45;;;;;;;6.28;4.57;;;;;;;;;;5050369;28;47849;-75
2021/07/23 10:49:32;;;;;;;6.60;4.68;;;;;;;;;;5057330;28;38352;-76
2021/07/23 10:52:02;;;;;;;7.85;5.15;;;;;;;;;;5077345;27;39439;-75
2021/07/23 10:54:28;;;;;;;6.13;4.88;;;;;;;;;;5057667;28;47327;-76
2021/07/23 10:56:56;;;;;;;6.68;4.38;;;;;;;;;;5059284;28;39280;-76
2021/07/23 10:59:35;;;;;;;8.18;4.63;;;;;;;;;;5056824;28;38205;-76
2021/07/23 11:02:01;;;;;;;8.40;4.55;;;;;;;;;;5057739;28;38912;-76
2021/07/23 11:04:28;;;;;;;8.02;4.70;;;;;;;;;;5055305;28;48503;-76
2021/07/23 11:06:59;;;;;;;6.45;4.03;;;;;;;;;;5055330;28;39418;-75
2021/07/23 11:09:26;;;;;;;10.25;4.18;;;;;;;;;;5054606;28;36872;-77
2021/07/23 11:11:53;;;;;;;4.32;3.70;;;;;;;;;;5064993;28;39782;-75
2021/07/23 11:14:20;;;;;;;6.18;4.28;;;;;;;;;;5059488;28;39342;-76
2021/07/23 11:16:46;;;;;;;6.47;4.13;;;;;;;;;;5061965;28;39318;-75
2021/07/23 11:19:22;;;;;;;6.15;3.78;;;;;;;;;;5057929;28;35965;-75
2021/07/23 11:21:49;;;;;;;7.75;3.67;;;;;;;;;;5057662;28;39293;-75
2021/07/23 11:24:16;;;;;;;6.10;4.35;;;;;;;;;;5056172;28;39041;-75
2021/07/23 11:26:50;;;;;;;8.35;4.13;;;;;;;;;;5058931;28;39609;-74
2021/07/23 11:29:29;;;;;;;7.97;4.35;;;;;;;;;;5059663;28;37716;-75
2021/07/23 11:32:03;;;;;;;7.03;4.50;;;;;;;;;;5052175;28;39913;-76
2021/07/23 11:34:36;;;;;;;5.30;4.20;;;;;;;;;;5061513;28;48633;-76
2021/07/23 11:37:12;;;;;;;7.90;4.10;;;;;;;;;;5050103;28;39463;-76
2021/07/23 11:39:55;;;;;;;5.18;3.97;;;;;;;;;;5057334;28;47392;-76
2021/07/23 11:42:22;;;;;;;5.30;4.57;;;;;;;;;;5066624;28;39009;-75
2021/07/23 11:44:56;;;;;;;8.13;5.25;;;;;;;;;;5063401;28;39115;-76
2021/07/23 11:47:35;;;;;;;7.22;4.47;;;;;;;;;;5049676;28;38892;-75
2021/07/23 11:50:03;;;;;;;5.68;4.45;;;;;;;;;;5059945;28;36795;-76
2021/07/23 11:52:30;;;;;;;7.55;5.60;;;;;;;;;;5064358;28;37817;-75
2021/07/23 11:55:05;;;;;;;5.88;4.70;;;;;;;;;;5054388;28;39318;-75
2021/07/23 11:57:36;;;;;;;9.18;4.93;;;;;;;;;;5040850;28;47164;-76
2021/07/23 12:00:03;;;;;;;6.88;5.15;;;;;;;;;;5048548;28;37182;-76
2021/07/23 12:02:30;;;;;;;7.85;5.13;;;;;;;;;;5058610;28;40748;-76
2021/07/23 12:05:04;;;;;;;8.27;5.35;;;;;;;;;;5055335;28;38962;-78
2021/07/23 12:07:30;;;;;;;8.77;5.25;;;;;;;;;;5063641;28;46833;-78
2021/07/23 12:09:58;;;;;;;8.27;5.90;;;;;;;;;;5072541;28;37081;-78
2021/07/23 12:12:24;;;;;;;8.18;6.20;;;;;;;;;;5066602;28;39991;-76
2021/07/23 12:14:51;;;;;;;8.20;5.57;;;;;;;;;;5067690;28;39203;-76
2021/07/23 12:17:17;;;;;;;7.38;4.85;;;;;;;;;;5061379;28;39092;-77
2021/07/23 12:19:43;;;;;;;6.18;5.05;;;;;;;;;;5051467;28;38686;-76
2021/07/23 12:22:11;;;;;;;7.15;4.88;;;;;;;;;;5049205;28;39699;-77
2021/07/23 12:24:37;;;;;;;6.13;4.75;;;;;;;;;;5066037;28;39675;-79
2021/07/23 12:27:16;;;;;;;7.50;4.63;;;;;;;;;;5065419;28;39189;-79
2021/07/23 12:29:43;;;;;;;7.47;5.40;;;;;;;;;;5059330;28;37758;-79
2021/07/23 12:32:14;;;;;;;7.82;5.43;;;;;;;;;;5060443;28;40471;-78
2021/07/23 12:34:42;;;;;;;8.27;5.22;;;;;;;;;;5067711;28;39512;-79
2021/07/23 12:37:18;;;;;;;7.93;5.80;;;;;;;;;;5066604;28;38069;-77
2021/07/23 12:39:50;;;;;;;8.48;6.40;;;;;;;;;;5072401;28;36936;-79
2021/07/23 12:42:20;;;;;;;8.23;5.65;;;;;;;;;;5073454;28;39585;-76
2021/07/23 12:44:47;;;;;;;10.98;6.32;;;;;;;;;;5072166;28;37574;-79
2021/07/23 12:47:17;;;;;;;7.63;5.65;;;;;;;;;;5078736;27;38924;-79
2021/07/23 12:49:44;;;;;;;6.47;5.20;;;;;;;;;;5075631;28;37403;-79
2021/07/23 12:52:10;;;;;;;9.75;6.45;;;;;;;;;;5074572;28;39443;-78
2021/07/23 12:54:37;;;;;;;10.60;5.50;;;;;;;;;;5077645;28;40148;-79
2021/07/23 12:57:19;;;;;;;7.80;5.20;;;;;;;;;;5075267;28;39410;-78
2021/07/23 12:59:54;;;;;;;7.50;6.38;;;;;;;;;;5070688;28;36873;-78
2021/07/23 13:02:21;;;;;;;8.85;5.75;;;;;;;;;;5066117;28;38725;-77
2021/07/23 13:04:49;;;;;;;6.85;5.50;;;;;;;;;;5072398;28;37626;-77
2021/07/23 13:07:16;;;;;;;8.38;6.63;;;;;;;;;;5067679;28;38098;-76
2021/07/23 13:09:43;;;;;;;6.57;5.20;;;;;;;;;;5086732;28;37265;-74
2021/07/23 13:12:10;;;;;;;8.00;5.72;;;;;;;;;;5074001;28;39135;-76
2021/07/23 13:14:36;;;;;;;6.60;5.18;;;;;;;;;;5066200;28;39304;-76
2021/07/23 13:17:03;;;;;;;9.75;5.63;;;;;;;;;;5065304;28;39510;-76
2021/07/23 13:19:30;;;;;;;13.13;5.70;;;;;;;;;;5064152;28;36969;-76
2021/07/23 13:21:57;;;;;;;7.95;5.30;;;;;;;;;;5070959;28;39870;-77
2021/07/23 13:24:23;;;;;;;9.65;5.10;;;;;;;;;;5064613;28;37733;-76
2021/07/23 13:26:50;;;;;;;7.43;5.22;;;;;;;;;;5089874;28;37119;-76
2021/07/23 13:29:22;;;;;;;5.25;4.35;;;;;;;;;;5073554;28;35605;-76
2021/07/23 13:31:49;;;;;;;6.18;5.57;;;;;;;;;;5066671;28;38030;-76
2021/07/23 13:34:16;;;;;;;7.18;5.18;;;;;;;;;;5066688;28;37688;-76
2021/07/23 13:36:44;;;;;;;6.60;5.00;;;;;;;;;;5066897;28;38539;-77
2021/07/23 13:39:13;;;;;;;9.05;5.70;;;;;;;;;;5065007;28;35370;-75
2021/07/23 13:41:41;;;;;;;8.05;5.68;;;;;;;;;;5076164;27;38968;-75
2021/07/23 13:44:09;;;;;;;9.98;5.57;;;;;;;;;;5066344;28;39556;-74
2021/07/23 13:46:37;;;;;;;8.68;5.43;;;;;;;;;;5062893;28;38869;-76
2021/07/23 13:49:06;;;;;;;7.38;5.43;;;;;;;;;;5070294;28;37527;-76
2021/07/23 13:51:33;;;;;;;6.20;4.97;;;;;;;;;;5071466;28;38937;-76
2021/07/23 13:54:01;;;;;;;7.40;5.35;;;;;;;;;;5062982;28;40008;-75
2021/07/23 13:56:34;;;;;;;8.02;5.60;;;;;;;;;;5068278;28;47266;-76
2021/07/23 13:59:02;;;;;;;5.95;4.78;;;;;;;;;;5070964;28;37135;-75
2021/07/23 14:01:31;;;;;;;7.03;5.25;;;;;;;;;;5069094;28;37796;-76
2021/07/23 14:03:57;;;;;;;8.13;5.60;;;;;;;;;;5069507;28;39703;-76
2021/07/23 14:06:25;;;;;;;6.72;5.00;;;;;;;;;;5070518;28;38491;-76
2021/07/23 14:08:54;;;;;;;9.50;5.32;;;;;;;;;;5068980;28;36752;-76
2021/07/23 14:11:21;;;;;;;10.20;6.35;;;;;;;;;;5066885;28;37910;-76
2021/07/23 14:13:48;;;;;;;8.15;6.25;;;;;;;;;;5069031;28;40182;-76
2021/07/23 14:16:14;;;;;;;9.55;5.88;;;;;;;;;;5068702;28;38902;-76
2021/07/23 14:18:40;;;;;;;7.88;5.43;;;;;;;;;;5080404;28;36818;-75
2021/07/23 14:21:07;;;;;;;8.82;5.60;;;;;;;;;;5076352;28;39025;-75
2021/07/23 14:23:34;;;;;;;7.03;5.57;;;;;;;;;;5064167;28;38882;-75
2021/07/23 14:26:00;;;;;;;6.93;5.63;;;;;;;;;;5064532;28;37527;-75
2021/07/23 14:28:27;;;;;;;8.23;5.68;;;;;;;;;;5067896;28;38499;-75
2021/07/23 14:30:54;;;;;;;9.13;6.40;;;;;;;;;;5054959;28;38211;-75
2021/07/23 14:33:20;;;;;;;6.40;5.00;;;;;;;;;;5064040;27;40545;-76
2021/07/23 14:35:46;;;;;;;8.93;6.00;;;;;;;;;;5060130;28;38849;-76
2021/07/23 14:38:13;;;;;;;7.13;5.88;;;;;;;;;;5067875;28;35887;-75
2021/07/23 14:40:39;;;;;;;8.00;5.32;;;;;;;;;;5067012;28;37318;-74
2021/07/23 14:43:06;;;;;;;8.38;6.07;;;;;;;;;;5056959;28;37457;-75